Time;durP1;ratioP1;P1;durP2;ratioP2;P2;SDS_P1;SDS_P2;PMS_P1;PMS_P2;Temp;Humidity;BMP_temperature;BMP_pressure;BME280_temperature;BME280_humidity;BME280_pressure;Samples;Min_cycle;Max_cycle;Signal;HPM_P1;HPM_P2
2022/09/11 07:22:57;;;;;;;;;;;17.90;99.90;;;;;;6305443;22;19949;-73
2022/09/11 07:25:25;;;;;;;;;;;18.10;99.90;;;;;;6285964;22;19981;-78
2022/09/11 07:34:44;;;;;;;;;;;18.70;99.90;;;;;;6271872;22;19911;-78
2022/09/11 07:37:36;;;;;;;;;;;18.90;99.90;;;;;;6256161;22;19937;-79
2022/09/11 07:40:25;;;;;;;;;;;19.10;99.90;;;;;;6229531;22;19922;-78
2022/09/11 07:43:14;;;;;;;;;;;19.10;99.90;;;;;;6279403;22;19994;-79
2022/09/11 07:45:57;;;;;;;;;;;19.30;99.90;;;;;;6256564;22;19976;-78
2022/09/11 07:55:38;;;;;;;;;;;19.70;99.90;;;;;;6065801;23;19918;-80
2022/09/11 07:58:11;;;;;;;;;;;20.00;99.90;;;;;;6009355;23;20242;-80
2022/09/11 08:00:37;;;;;;;;;;;20.20;99.90;;;;;;6009192;23;19915;-79
2022/09/11 08:03:03;;;;;;;;;;;20.40;99.90;;;;;;6053990;23;19919;-78
2022/09/11 08:05:28;;;;;;;;;;;20.60;99.90;;;;;;6095377;23;19944;-79
2022/09/11 08:07:54;;;;;;;;;;;20.50;99.90;;;;;;6069450;23;19920;-78
2022/09/11 08:10:20;;;;;;;;;;;20.60;99.90;;;;;;6093002;23;19913;-77
2022/09/11 08:12:46;;;;;;;;;;;20.70;99.90;;;;;;6093973;23;19917;-79
2022/09/11 08:15:12;;;;;;;;;;;20.90;99.90;;;;;;6094330;23;19918;-78
2022/09/11 08:17:37;;;;;;;;;;;21.10;99.90;;;;;;6094320;23;20000;-77
2022/09/11 08:20:03;;;;;;;;;;;21.20;99.90;;;;;;6135786;23;20353;-78
2022/09/11 08:22:29;;;;;;;;;;;21.30;99.90;;;;;;6133757;23;20350;-79
2022/09/11 08:24:54;;;;;;;;;;;21.30;99.90;;;;;;6135263;23;19912;-77
2022/09/11 08:27:20;;;;;;;;;;;21.00;99.90;;;;;;6188164;23;19919;-78
2022/09/11 08:29:46;;;;;;;;;;;20.80;99.90;;;;;;6243091;22;19914;-78
2022/09/11 08:32:12;;;;;;;;;;;20.60;99.90;;;;;;6282251;22;19914;-79
2022/09/11 08:34:37;;;;;;;;;;;20.40;99.90;;;;;;6257375;22;19990;-78
2022/09/11 08:37:03;;;;;;;;;;;20.20;99.90;;;;;;6257217;22;20305;-78
2022/09/11 08:39:29;;;;;;;;;;;20.00;99.90;;;;;;6256964;22;19910;-78
2022/09/11 08:41:58;;;;;;;;;;;19.90;99.90;;;;;;6257520;22;19910;-79
2022/09/11 08:44:28;;;;;;;;;;;19.80;99.90;;;;;;6283015;22;19989;-79
2022/09/11 08:47:08;;;;;;;;;;;19.60;99.90;;;;;;6287812;22;19918;-80
2022/09/11 08:49:38;;;;;;;;;;;19.50;99.90;;;;;;6283267;22;19911;-76
2022/09/11 08:52:09;;;;;;;;;;;19.40;99.90;;;;;;6282769;22;19927;-77
2022/09/11 08:54:37;;;;;;;;;;;19.40;99.90;;;;;;6282597;22;19942;-77
2022/09/11 08:57:15;;;;;;;;;;;19.30;99.90;;;;;;6257199;22;20374;-77
2022/09/11 08:59:44;;;;;;;;;;;19.40;99.90;;;;;;6257653;22;19911;-76
2022/09/11 09:02:30;;;;;;;;;;;19.30;99.90;;;;;;6257664;22;19918;-77
2022/09/11 09:05:01;;;;;;;;;;;19.40;99.90;;;;;;6257189;22;19911;-74
2022/09/11 09:07:34;;;;;;;;;;;19.40;99.90;;;;;;6257568;22;19910;-77
2022/09/11 09:10:22;;;;;;;;;;;19.40;99.90;;;;;;6257806;22;19911;-77
2022/09/11 09:12:54;;;;;;;;;;;19.60;99.90;;;;;;6257112;22;19918;-79
2022/09/11 09:15:23;;;;;;;;;;;20.10;99.90;;;;;;6283034;22;19910;-79
2022/09/11 09:17:49;;;;;;;;;;;20.40;99.90;;;;;;6256920;22;19911;-79
2022/09/11 09:20:19;;;;;;;;;;;20.80;99.90;;;;;;6282469;22;19911;-80
2022/09/11 09:22:48;;;;;;;;;;;21.10;99.90;;;;;;6282720;22;20232;-80
2022/09/11 09:25:16;;;;;;;;;;;21.20;99.90;;;;;;6257200;22;19922;-78
2022/09/11 09:27:45;;;;;;;;;;;21.10;99.90;;;;;;6282379;22;19926;-80
2022/09/11 09:30:18;;;;;;;;;;;21.00;99.90;;;;;;6282624;22;19987;-80
2022/09/11 09:33:01;;;;;;;;;;;20.90;99.90;;;;;;6282322;22;19918;-78
2022/09/11 09:35:39;;;;;;;;;;;20.80;99.90;;;;;;6280066;22;19915;-78
2022/09/11 09:38:15;;;;;;;;;;;20.50;99.90;;;;;;6282288;22;19921;-78
2022/09/11 09:40:44;;;;;;;;;;;20.50;99.90;;;;;;6282311;22;20385;-78
2022/09/11 10:20:11;;;;;;;;;;;20.70;99.90;;;;;;6336750;22;19921;-78
2022/09/11 10:22:42;;;;;;;;;;;20.50;99.90;;;;;;6287390;22;19918;-77
2022/09/11 10:25:10;;;;;;;;;;;20.70;99.90;;;;;;6263072;22;19925;-80
2022/09/11 10:27:43;;;;;;;;;;;20.60;99.90;;;;;;6282039;22;20371;-78
2022/09/11 10:30:29;;;;;;;;;;;20.60;99.90;;;;;;6255961;22;19911;-77
2022/09/11 10:32:58;;;;;;;;;;;20.80;99.90;;;;;;6282431;22;19932;-79
2022/09/11 10:35:26;;;;;;;;;;;20.90;99.90;;;;;;6256865;22;19918;-73
2022/09/11 10:38:06;;;;;;;;;;;21.00;99.90;;;;;;6281934;22;19911;-74
2022/09/11 10:40:32;;;;;;;;;;;21.20;99.90;;;;;;6281665;22;19964;-73
2022/09/11 10:42:58;;;;;;;;;;;21.40;99.90;;;;;;6281701;22;19911;-72
2022/09/11 10:45:23;;;;;;;;;;;21.50;99.90;;;;;;6281751;22;19911;-74
2022/09/11 10:47:49;;;;;;;;;;;21.70;99.90;;;;;;6281786;22;19915;-74
2022/09/11 10:50:15;;;;;;;;;;;21.80;99.90;;;;;;6281555;22;19910;-73
2022/09/11 10:52:54;;;;;;;;;;;21.80;99.90;;;;;;6255885;22;19911;-74
2022/09/11 10:55:20;;;;;;;;;;;22.00;99.90;;;;;;6308779;22;19911;-73
2022/09/11 10:57:54;;;;;;;;;;;22.10;99.90;;;;;;6281131;22;20214;-75
2022/09/11 11:00:23;;;;;;;;;;;22.00;99.90;;;;;;6281121;22;20313;-75
2022/09/11 11:37:47;;;;;;;;;;;21.80;99.90;;;;;;6281876;22;19915;-82
2022/09/11 11:54:53;;;;;;;;;;;21.30;99.90;;;;;;6306798;22;19915;-77
2022/09/11 11:57:25;;;;;;;;;;;21.30;99.90;;;;;;6280501;22;19994;-79
2022/09/11 11:59:57;;;;;;;;;;;21.40;99.90;;;;;;6280526;22;20333;-76
2022/09/11 12:02:35;;;;;;;;;;;21.50;99.90;;;;;;6279492;22;19959;-78
2022/09/11 12:05:25;;;;;;;;;;;21.50;99.90;;;;;;6256266;22;20317;-78
2022/09/11 12:08:02;;;;;;;;;;;21.60;99.90;;;;;;6255220;22;20328;-80
2022/09/11 12:10:29;;;;;;;;;;;21.60;99.90;;;;;;6281070;22;19919;-77
2022/09/11 12:13:02;;;;;;;;;;;21.50;99.90;;;;;;6255967;22;19968;-77
2022/09/11 12:15:48;;;;;;;;;;;21.40;99.90;;;;;;6280678;22;19915;-79
2022/09/11 12:18:14;;;;;;;;;;;21.30;99.90;;;;;;6280849;22;19911;-76
2022/09/11 12:20:40;;;;;;;;;;;21.30;99.90;;;;;;6281171;22;19918;-78
2022/09/11 12:23:26;;;;;;;;;;;21.30;99.90;;;;;;6255612;22;20306;-78
2022/09/11 12:26:03;;;;;;;;;;;21.30;99.90;;;;;;6280534;22;19915;-79
2022/09/11 12:28:29;;;;;;;;;;;21.30;99.90;;;;;;6255654;22;20331;-80
2022/09/11 12:31:06;;;;;;;;;;;21.30;99.90;;;;;;6281171;22;19911;-79
2022/09/11 12:33:46;;;;;;;;;;;21.30;99.90;;;;;;6255660;22;19911;-79
2022/09/11 12:36:32;;;;;;;;;;;21.20;99.90;;;;;;6255421;22;19915;-79
2022/09/11 12:39:01;;;;;;;;;;;21.30;99.90;;;;;;6255267;22;20327;-78
2022/09/11 12:41:29;;;;;;;;;;;21.30;99.90;;;;;;6255263;22;19911;-79
2022/09/11 12:43:55;;;;;;;;;;;21.40;99.90;;;;;;6281124;22;19942;-78
2022/09/11 12:46:20;;;;;;;;;;;21.50;99.90;;;;;;6280663;22;19918;-78
2022/09/11 12:48:50;;;;;;;;;;;21.50;99.90;;;;;;6254763;22;19922;-76
2022/09/11 12:51:25;;;;;;;;;;;21.60;99.90;;;;;;6280825;22;19910;-78
2022/09/11 12:53:59;;;;;;;;;;;21.80;99.90;;;;;;6265040;22;19915;-77
2022/09/11 12:56:58;;;;;;;;;;;21.80;99.90;;;;;;6315559;22;19945;-78
2022/09/11 13:28:05;;;;;;;;;;;21.40;99.90;;;;;;5864476;24;19915;-79
2022/09/11 13:30:32;;;;;;;;;;;21.60;99.90;;;;;;6026219;23;19908;-78
2022/09/11 13:33:02;;;;;;;;;;;21.70;99.90;;;;;;6151589;23;19970;-74
2022/09/11 13:35:28;;;;;;;;;;;21.90;99.90;;;;;;6106172;23;19952;-76
2022/09/11 13:38:01;;;;;;;;;;;21.90;99.90;;;;;;6105990;23;19916;-78
2022/09/11 13:40:47;;;;;;;;;;;21.90;99.90;;;;;;6217713;22;20326;-75
2022/09/11 13:43:19;;;;;;;;;;;21.80;99.90;;;;;;6250001;22;20241;-76
2022/09/11 13:45:46;;;;;;;;;;;21.70;99.90;;;;;;6250558;22;20223;-82
2022/09/11 13:48:22;;;;;;;;;;;21.80;99.90;;;;;;6250082;22;19915;-76
2022/09/11 13:50:49;;;;;;;;;;;21.70;99.90;;;;;;6250519;22;19915;-75
2022/09/11 13:53:16;;;;;;;;;;;21.70;99.90;;;;;;6250204;22;19946;-72
2022/09/11 13:55:54;;;;;;;;;;;21.70;99.90;;;;;;6224842;22;19911;-76
2022/09/11 13:58:24;;;;;;;;;;;21.80;99.90;;;;;;6234329;22;19918;-78
2022/09/11 14:00:51;;;;;;;;;;;21.80;99.90;;;;;;6307958;22;19922;-76
2022/09/11 14:03:26;;;;;;;;;;;21.80;99.90;;;;;;6282446;22;19914;-73
2022/09/11 14:05:59;;;;;;;;;;;21.90;99.90;;;;;;6280790;22;19968;-73
2022/09/11 14:08:39;;;;;;;;;;;21.90;99.90;;;;;;6281401;22;20276;-74
2022/09/11 14:11:20;;;;;;;;;;;21.90;99.90;;;;;;6307167;22;19911;-74
2022/09/11 14:13:46;;;;;;;;;;;21.90;99.90;;;;;;6307756;22;19915;-74
2022/09/11 14:16:12;;;;;;;;;;;21.80;99.90;;;;;;6307544;22;20245;-75
2022/09/11 14:18:44;;;;;;;;;;;21.70;99.90;;;;;;6307287;22;19993;-74
2022/09/11 14:21:18;;;;;;;;;;;21.60;99.90;;;;;;6333285;22;19959;-77
2022/09/11 14:23:48;;;;;;;;;;;21.60;99.90;;;;;;6307068;22;20232;-77
2022/09/11 14:26:15;;;;;;;;;;;21.50;99.90;;;;;;6306967;22;19915;-75
2022/09/11 14:28:43;;;;;;;;;;;21.50;99.90;;;;;;6281223;22;19918;-76
2022/09/11 14:31:10;;;;;;;;;;;21.50;99.90;;;;;;6307161;22;19965;-76
2022/09/11 14:33:36;;;;;;;;;;;21.50;99.90;;;;;;6281271;22;19922;-76
2022/09/11 14:36:04;;;;;;;;;;;21.40;99.90;;;;;;6281048;22;20229;-77
2022/09/11 14:38:30;;;;;;;;;;;21.40;99.90;;;;;;6281151;22;19922;-76
2022/09/11 14:40:57;;;;;;;;;;;21.40;99.90;;;;;;6281148;22;19910;-76
2022/09/11 14:43:33;;;;;;;;;;;21.50;99.90;;;;;;6280842;22;19911;-76
2022/09/11 14:45:59;;;;;;;;;;;21.40;99.90;;;;;;6281512;22;19911;-76
2022/09/11 14:48:26;;;;;;;;;;;21.50;99.90;;;;;;6307218;22;19946;-78
2022/09/11 14:50:52;;;;;;;;;;;21.70;99.90;;;;;;6280997;22;19942;-77
2022/09/11 14:53:24;;;;;;;;;;;21.60;99.90;;;;;;6284047;22;19921;-78
2022/09/11 14:55:50;;;;;;;;;;;21.60;99.90;;;;;;6286485;22;19917;-75
2022/09/11 14:58:16;;;;;;;;;;;21.60;99.90;;;;;;6312171;22;19910;-76
2022/09/11 15:00:41;;;;;;;;;;;21.50;99.90;;;;;;6312094;22;19915;-79
2022/09/11 15:03:07;;;;;;;;;;;21.50;99.90;;;;;;6311746;22;20382;-76
2022/09/11 15:05:35;;;;;;;;;;;21.50;99.90;;;;;;6311628;22;19917;-76
2022/09/11 15:08:02;;;;;;;;;;;21.50;99.90;;;;;;6285860;22;19919;-79
2022/09/11 15:10:27;;;;;;;;;;;21.60;99.90;;;;;;6311927;22;19914;-74
2022/09/11 15:12:57;;;;;;;;;;;21.60;99.90;;;;;;6311816;22;19933;-77
2022/09/11 15:15:27;;;;;;;;;;;21.60;99.90;;;;;;6312024;22;20228;-78
2022/09/11 15:17:53;;;;;;;;;;;21.60;99.90;;;;;;6311741;22;19921;-78
2022/09/11 15:20:24;;;;;;;;;;;21.60;99.90;;;;;;6311771;22;19917;-78
2022/09/11 15:22:55;;;;;;;;;;;21.60;99.90;;;;;;6311916;22;19910;-77
2022/09/11 15:25:23;;;;;;;;;;;21.60;99.90;;;;;;6311785;22;19918;-77
2022/09/11 15:27:59;;;;;;;;;;;21.60;99.90;;;;;;6312150;22;19925;-78
2022/09/11 15:30:26;;;;;;;;;;;21.60;99.90;;;;;;6312217;22;19918;-79
2022/09/11 15:32:52;;;;;;;;;;;21.50;99.90;;;;;;6285489;22;19995;-78
2022/09/11 15:35:18;;;;;;;;;;;21.40;99.90;;;;;;6336774;22;20232;-79
2022/09/11 15:37:47;;;;;;;;;;;21.30;99.90;;;;;;6311363;22;20359;-78
2022/09/11 15:40:14;;;;;;;;;;;21.30;99.90;;;;;;6337972;22;19918;-78
2022/09/11 15:42:40;;;;;;;;;;;21.20;99.90;;;;;;6312091;22;19911;-78
2022/09/11 15:45:12;;;;;;;;;;;21.20;99.90;;;;;;6311832;22;19971;-77
2022/09/11 15:47:38;;;;;;;;;;;21.10;99.90;;;;;;6312038;22;19993;-77
2022/09/11 15:50:04;;;;;;;;;;;21.10;99.90;;;;;;6311769;22;19987;-77
2022/09/11 15:52:35;;;;;;;;;;;21.00;99.90;;;;;;6285586;22;19917;-78
2022/09/11 15:55:01;;;;;;;;;;;20.90;99.90;;;;;;6280715;22;19915;-78
2022/09/11 15:57:28;;;;;;;;;;;20.90;99.90;;;;;;6280869;22;19965;-78
2022/09/11 15:59:57;;;;;;;;;;;20.70;99.90;;;;;;6279408;22;19918;-78
2022/09/11 16:02:23;;;;;;;;;;;20.60;99.90;;;;;;6280716;22;19918;-78
2022/09/11 16:04:49;;;;;;;;;;;20.60;99.90;;;;;;6280610;22;19911;-77
2022/09/11 16:07:15;;;;;;;;;;;20.50;99.90;;;;;;6280677;22;19914;-79
2022/09/11 16:09:40;;;;;;;;;;;20.50;99.90;;;;;;6280427;22;20270;-78
2022/09/11 16:12:06;;;;;;;;;;;20.50;99.90;;;;;;6306755;22;19910;-77
2022/09/11 16:14:35;;;;;;;;;;;20.40;99.90;;;;;;6280815;22;19913;-77
2022/09/11 16:17:04;;;;;;;;;;;20.30;99.90;;;;;;6280085;22;20370;-78
2022/09/11 16:19:30;;;;;;;;;;;20.30;99.90;;;;;;6280546;22;19911;-77
2022/09/11 16:21:56;;;;;;;;;;;20.30;99.90;;;;;;6280676;22;19949;-78
2022/09/11 16:24:27;;;;;;;;;;;20.20;99.90;;;;;;6280875;22;19917;-78
2022/09/11 16:26:54;;;;;;;;;;;20.10;99.90;;;;;;6280860;22;19985;-78
2022/09/11 16:29:21;;;;;;;;;;;20.10;99.90;;;;;;6280248;22;19911;-76
2022/09/11 16:31:47;;;;;;;;;;;20.10;99.90;;;;;;6280475;22;19911;-77
2022/09/11 16:34:13;;;;;;;;;;;20.00;99.90;;;;;;6305836;22;19911;-77
2022/09/11 16:36:41;;;;;;;;;;;19.90;99.90;;;;;;6306192;22;19923;-77
2022/09/11 16:39:08;;;;;;;;;;;19.90;99.90;;;;;;6281001;22;20008;-77
2022/09/11 16:41:36;;;;;;;;;;;19.90;99.90;;;;;;6281079;22;19918;-77
2022/09/11 16:44:02;;;;;;;;;;;19.90;99.90;;;;;;6281269;22;19946;-78
2022/09/11 16:46:28;;;;;;;;;;;19.80;99.90;;;;;;6306620;22;19915;-78
2022/09/11 16:48:55;;;;;;;;;;;19.60;99.90;;;;;;6281993;22;19911;-78
2022/09/11 16:51:22;;;;;;;;;;;19.60;99.90;;;;;;6308394;22;19961;-78
2022/09/11 16:53:48;;;;;;;;;;;19.60;99.90;;;;;;6310051;22;19914;-77
2022/09/11 16:56:16;;;;;;;;;;;19.60;99.90;;;;;;6256771;22;19921;-78
2022/09/11 16:58:42;;;;;;;;;;;19.50;99.90;;;;;;6256655;22;19969;-76
2022/09/11 17:01:10;;;;;;;;;;;19.50;99.90;;;;;;6256531;22;19914;-78
2022/09/11 17:03:36;;;;;;;;;;;19.40;99.90;;;;;;6256792;22;19934;-77
2022/09/11 17:06:02;;;;;;;;;;;19.40;99.90;;;;;;6282431;22;19911;-77
2022/09/11 17:08:30;;;;;;;;;;;19.40;99.90;;;;;;6257182;22;19918;-77
2022/09/11 17:11:00;;;;;;;;;;;19.40;99.90;;;;;;6256952;22;19911;-77
2022/09/11 17:13:27;;;;;;;;;;;19.40;99.90;;;;;;6257027;22;19986;-76
2022/09/11 17:15:53;;;;;;;;;;;19.30;99.90;;;;;;6256751;22;19956;-77
2022/09/11 17:18:19;;;;;;;;;;;19.30;99.90;;;;;;6282253;22;19941;-77
2022/09/11 17:20:45;;;;;;;;;;;19.20;99.90;;;;;;6256333;22;20001;-77
2022/09/11 17:23:13;;;;;;;;;;;19.20;99.90;;;;;;6256903;22;20331;-78
2022/09/11 17:25:41;;;;;;;;;;;19.10;99.90;;;;;;6256678;22;20210;-78
2022/09/11 17:28:07;;;;;;;;;;;19.10;99.90;;;;;;6282471;22;20232;-78
2022/09/11 17:30:36;;;;;;;;;;;18.90;99.90;;;;;;6307980;22;19910;-78
2022/09/11 17:33:02;;;;;;;;;;;18.90;99.90;;;;;;6256696;22;20233;-77
2022/09/11 17:35:30;;;;;;;;;;;18.80;99.90;;;;;;6256351;22;19968;-77
2022/09/11 17:37:56;;;;;;;;;;;18.70;99.90;;;;;;6256404;22;19915;-78
2022/09/11 17:40:22;;;;;;;;;;;18.70;99.90;;;;;;6256702;22;20317;-77
2022/09/11 17:42:50;;;;;;;;;;;18.70;99.90;;;;;;6256510;22;19993;-78
2022/09/11 17:45:18;;;;;;;;;;;18.60;99.90;;;;;;6256539;22;19915;-77
2022/09/11 17:47:44;;;;;;;;;;;18.50;99.90;;;;;;6256165;22;20277;-78
2022/09/11 17:50:09;;;;;;;;;;;18.40;99.90;;;;;;6281869;22;19946;-76
2022/09/11 17:52:35;;;;;;;;;;;18.30;99.90;;;;;;6256451;22;19991;-78
2022/09/11 17:55:04;;;;;;;;;;;18.20;99.90;;;;;;6294738;22;19914;-77
2022/09/11 17:57:31;;;;;;;;;;;18.10;99.90;;;;;;6306987;22;19959;-78
2022/09/11 17:59:57;;;;;;;;;;;18.00;99.90;;;;;;6281928;22;19911;-77
2022/09/11 18:02:22;;;;;;;;;;;17.90;99.90;;;;;;6281459;22;19917;-76
2022/09/11 18:04:48;;;;;;;;;;;17.80;99.90;;;;;;6281284;22;19911;-76
2022/09/11 18:07:14;;;;;;;;;;;17.70;99.90;;;;;;6281771;22;19953;-77
2022/09/11 18:09:40;;;;;;;;;;;17.70;99.90;;;;;;6281862;22;20370;-76
2022/09/11 18:12:06;;;;;;;;;;;17.60;99.90;;;;;;6281973;22;20226;-78
2022/09/11 18:14:34;;;;;;;;;;;17.50;99.90;;;;;;6281877;22;19915;-78
2022/09/11 18:17:00;;;;;;;;;;;17.40;99.90;;;;;;6281159;22;20357;-78
2022/09/11 18:19:27;;;;;;;;;;;17.30;99.90;;;;;;6281804;22;19910;-77
2022/09/11 18:21:54;;;;;;;;;;;17.30;99.90;;;;;;6281992;22;19915;-77
2022/09/11 18:24:19;;;;;;;;;;;17.20;99.90;;;;;;6281352;22;19910;-76
2022/09/11 18:26:46;;;;;;;;;;;17.20;99.90;;;;;;6307251;22;19946;-76
2022/09/11 18:29:13;;;;;;;;;;;17.10;99.90;;;;;;6281462;22;19910;-77
2022/09/11 18:31:42;;;;;;;;;;;17.10;99.90;;;;;;6307158;22;19918;-77
2022/09/11 18:34:09;;;;;;;;;;;17.00;99.90;;;;;;6307693;22;19946;-76
2022/09/11 18:36:35;;;;;;;;;;;17.00;99.90;;;;;;6281497;22;20251;-77
2022/09/11 18:39:02;;;;;;;;;;;16.90;99.90;;;;;;6307086;22;19911;-78
2022/09/11 18:41:29;;;;;;;;;;;16.90;99.90;;;;;;6307283;22;19915;-76
2022/09/11 18:43:55;;;;;;;;;;;16.90;99.90;;;;;;6281140;22;19956;-78
2022/09/11 18:46:24;;;;;;;;;;;16.80;99.90;;;;;;6306942;22;19921;-77
2022/09/11 18:48:50;;;;;;;;;;;16.70;99.90;;;;;;6281652;22;19993;-77
2022/09/11 18:51:16;;;;;;;;;;;16.70;99.90;;;;;;6281260;22;19946;-78
2022/09/11 18:53:42;;;;;;;;;;;16.60;99.90;;;;;;6307304;22;19911;-77
2022/09/11 18:56:09;;;;;;;;;;;16.60;99.90;;;;;;6280944;22;19943;-77
2022/09/11 18:58:37;;;;;;;;;;;16.50;99.90;;;;;;6281155;22;20377;-76
2022/09/11 19:01:10;;;;;;;;;;;16.50;99.90;;;;;;6280550;22;19926;-77
2022/09/11 19:03:39;;;;;;;;;;;16.40;99.90;;;;;;6281680;22;19915;-77
2022/09/11 19:06:07;;;;;;;;;;;16.40;99.90;;;;;;6281122;22;19911;-76
2022/09/11 19:08:36;;;;;;;;;;;16.30;99.90;;;;;;6281164;22;20198;-77
2022/09/11 19:11:06;;;;;;;;;;;16.30;99.90;;;;;;6281289;22;19918;-78
2022/09/11 19:13:32;;;;;;;;;;;16.30;99.90;;;;;;6281298;22;19911;-77
2022/09/11 19:15:58;;;;;;;;;;;16.20;99.90;;;;;;6255405;22;20348;-77
2022/09/11 19:18:24;;;;;;;;;;;16.20;99.90;;;;;;6281101;22;20280;-76
2022/09/11 19:20:56;;;;;;;;;;;16.20;99.90;;;;;;6281302;22;19911;-78
2022/09/11 19:23:22;;;;;;;;;;;16.20;99.90;;;;;;6280818;22;19915;-77
2022/09/11 19:25:48;;;;;;;;;;;16.10;99.90;;;;;;6255549;22;19914;-77
2022/09/11 19:28:14;;;;;;;;;;;16.10;99.90;;;;;;6255525;22;19911;-77
2022/09/11 19:30:41;;;;;;;;;;;16.20;99.90;;;;;;6255656;22;20317;-77
2022/09/11 19:33:07;;;;;;;;;;;16.00;99.90;;;;;;6254781;22;19911;-77
2022/09/11 19:35:32;;;;;;;;;;;16.00;99.90;;;;;;6255735;22;19911;-77
2022/09/11 19:37:58;;;;;;;;;;;15.90;99.90;;;;;;6255078;22;19961;-77
2022/09/11 19:40:25;;;;;;;;;;;15.80;99.90;;;;;;6281035;22;19965;-77
2022/09/11 19:42:50;;;;;;;;;;;15.80;99.90;;;;;;6256720;22;19989;-79
2022/09/11 19:45:16;;;;;;;;;;;15.80;99.90;;;;;;6302295;22;19914;-78
2022/09/11 19:48:05;;;;;;;;;;;15.70;99.90;;;;;;6284198;22;19930;-80
2022/09/11 19:57:18;;;;;;;;;;;15.50;99.90;;;;;;6286816;22;19942;31
2022/09/11 20:17:43;;;;;;;;;;;15.20;99.90;;;;;;6152787;23;19939;-80
2022/09/11 20:20:17;;;;;;;;;;;15.20;99.90;;;;;;6112177;23;19928;-79
2022/09/11 20:22:46;;;;;;;;;;;15.10;99.90;;;;;;6164344;23;19938;-74
2022/09/11 20:25:12;;;;;;;;;;;15.10;99.90;;;;;;6163933;23;19916;-74
2022/09/11 20:27:57;;;;;;;;;;;15.10;99.90;;;;;;6188608;23;19920;-78
2022/09/11 20:30:23;;;;;;;;;;;15.10;99.90;;;;;;6162084;23;19916;-73
2022/09/11 20:39:31;;;;;;;;;;;15.00;99.90;;;;;;6215539;23;19915;-77
2022/09/11 20:42:02;;;;;;;;;;;15.00;99.90;;;;;;6163520;23;19924;-78
2022/09/11 20:52:02;;;;;;;;;;;;;;;;;;;;;
2022/09/11 20:54:57;;;;;;;;;;;14.90;99.90;;;;;;6091575;23;19924;-77
2022/09/11 20:57:55;;;;;;;;;;;15.00;99.90;;;;;;6098045;23;20267;-78
2022/09/11 21:00:51;;;;;;;;;;;15.00;99.90;;;;;;6150922;23;19916;-77
2022/09/11 21:09:40;;;;;;;;;;;14.90;99.90;;;;;;6139651;23;19923;-81
2022/09/11 21:12:18;;;;;;;;;;;14.90;99.90;;;;;;6127982;23;19956;-78
2022/09/11 21:18:03;;;;;;;;;;;14.80;99.90;;;;;;6126714;23;19921;-77
2022/09/11 21:20:43;;;;;;;;;;;14.70;99.90;;;;;;6102631;23;19924;-77
2022/09/11 21:23:37;;;;;;;;;;;14.70;99.90;;;;;;6100606;23;20308;-79
2022/09/11 21:26:13;;;;;;;;;;;14.70;99.90;;;;;;6128062;23;20027;-77
2022/09/11 21:28:46;;;;;;;;;;;14.70;99.90;;;;;;6102054;23;19927;-78
2022/09/11 21:31:12;;;;;;;;;;;14.60;99.90;;;;;;6079316;23;20403;-77
2022/09/11 21:33:38;;;;;;;;;;;14.60;99.90;;;;;;6129684;23;19925;-75
2022/09/11 21:39:20;;;;;;;;;;;14.50;99.90;;;;;;6188274;23;19916;-77
2022/09/11 21:41:45;;;;;;;;;;;14.50;99.90;;;;;;6164271;23;19920;-76
2022/09/11 21:52:01;;;;;;;;;;;14.40;99.90;;;;;;5925588;24;19939;-79
2022/09/11 21:55:09;;;;;;;;;;;14.30;99.90;;;;;;5925108;24;19942;-77
2022/09/11 21:58:37;;;;;;;;;;;;;;;;;;;;;
2022/09/11 22:01:28;;;;;;;;;;;14.30;99.90;;;;;;6213789;23;19919;-76
2022/09/11 22:03:54;;;;;;;;;;;14.20;99.90;;;;;;6162711;23;19916;-78
2022/09/11 22:06:22;;;;;;;;;;;14.20;99.90;;;;;;6162668;23;19955;-78
2022/09/11 22:08:48;;;;;;;;;;;14.20;99.90;;;;;;6164144;23;19943;-78
2022/09/11 22:11:17;;;;;;;;;;;14.10;99.90;;;;;;6189315;23;19950;-78
2022/09/11 22:13:43;;;;;;;;;;;14.10;99.90;;;;;;6164398;23;19923;-79
2022/09/11 22:16:12;;;;;;;;;;;14.10;99.90;;;;;;6163732;23;20389;-79
2022/09/11 22:18:39;;;;;;;;;;;14.10;99.90;;;;;;6189359;23;20421;-78
2022/09/11 22:21:05;;;;;;;;;;;14.00;99.90;;;;;;6189561;23;20241;-77
2022/09/11 22:23:33;;;;;;;;;;;14.00;99.90;;;;;;6163712;23;19915;-79
2022/09/11 22:26:11;;;;;;;;;;;14.00;99.90;;;;;;6186107;23;20323;-79
2022/09/11 22:28:40;;;;;;;;;;;14.00;99.90;;;;;;6196106;23;19915;-78
2022/09/11 22:31:06;;;;;;;;;;;13.90;99.90;;;;;;6195942;23;19951;-77
2022/09/11 22:33:42;;;;;;;;;;;13.90;99.90;;;;;;6195378;23;19916;-76
2022/09/11 22:36:13;;;;;;;;;;;13.90;99.90;;;;;;6196246;23;19971;-79
2022/09/11 22:38:38;;;;;;;;;;;13.80;99.90;;;;;;6195382;23;19916;-77
2022/09/11 22:41:06;;;;;;;;;;;13.80;99.90;;;;;;6195632;23;19922;-78
2022/09/11 22:43:32;;;;;;;;;;;13.80;99.90;;;;;;6195285;23;19916;-78
2022/09/11 22:45:58;;;;;;;;;;;13.90;99.90;;;;;;6195523;23;19924;-81
2022/09/11 22:48:24;;;;;;;;;;;14.00;99.90;;;;;;6195589;23;19923;-79
2022/09/11 22:50:50;;;;;;;;;;;14.10;99.90;;;;;;6195649;23;19938;-78
2022/09/11 22:53:15;;;;;;;;;;;14.10;99.90;;;;;;6220608;23;19915;-77
2022/09/11 22:55:45;;;;;;;;;;;14.10;99.90;;;;;;6196066;23;19938;-79
2022/09/11 22:58:11;;;;;;;;;;;14.10;99.90;;;;;;6215234;23;20298;-78
2022/09/11 23:00:37;;;;;;;;;;;14.10;99.90;;;;;;6215079;23;20070;-78
2022/09/11 23:03:03;;;;;;;;;;;14.00;99.90;;;;;;6190107;23;19939;-77
2022/09/11 23:08:15;;;;;;;;;;;14.00;99.90;;;;;;6240451;23;19950;-78
2022/09/11 23:10:45;;;;;;;;;;;13.90;99.90;;;;;;6190353;23;20005;-78
2022/09/11 23:13:11;;;;;;;;;;;13.90;99.90;;;;;;6240836;23;19989;-78
2022/09/11 23:15:36;;;;;;;;;;;13.80;99.90;;;;;;6190364;23;19916;-77
2022/09/11 23:18:02;;;;;;;;;;;13.90;99.90;;;;;;6215045;23;19919;-78
2022/09/11 23:20:31;;;;;;;;;;;13.90;99.90;;;;;;6190332;23;19916;-77
2022/09/11 23:22:56;;;;;;;;;;;13.80;99.90;;;;;;6215003;23;19915;-78
2022/09/11 23:25:24;;;;;;;;;;;13.80;99.90;;;;;;6189916;23;19923;-78
2022/09/11 23:27:57;;;;;;;;;;;13.80;99.90;;;;;;6190012;23;20319;-77
2022/09/11 23:30:23;;;;;;;;;;;13.80;99.90;;;;;;6189865;23;20319;-78
2022/09/11 23:32:53;;;;;;;;;;;13.70;99.90;;;;;;6190342;23;19915;-77
2022/09/11 23:35:24;;;;;;;;;;;13.70;99.90;;;;;;6190262;23;19915;-77
2022/09/11 23:37:52;;;;;;;;;;;13.70;99.90;;;;;;6238904;23;19924;-78
2022/09/11 23:40:18;;;;;;;;;;;13.70;99.90;;;;;;6190054;23;19970;-77
2022/09/11 23:42:51;;;;;;;;;;;13.70;99.90;;;;;;6215109;23;19915;-78
2022/09/11 23:45:17;;;;;;;;;;;13.80;99.90;;;;;;6215023;23;19991;-77
2022/09/11 23:47:43;;;;;;;;;;;13.70;99.90;;;;;;6215137;23;20366;-77
2022/09/11 23:50:11;;;;;;;;;;;13.70;99.90;;;;;;6189932;23;19920;-77
2022/09/11 23:52:38;;;;;;;;;;;13.70;99.90;;;;;;6189894;23;19986;-76
2022/09/11 23:55:04;;;;;;;;;;;13.70;99.90;;;;;;6189620;23;19916;-77
2022/09/11 23:57:30;;;;;;;;;;;13.80;99.90;;;;;;6189830;23;20331;-78
2022/09/11 23:59:56;;;;;;;;;;;13.80;99.90;;;;;;6189354;23;19927;-77
